Explore Kentucky Lake

Lake Conditions
Facebook Twitter Instagram YouTube Contact Us About Us
Switch Mobile/Desktop

Previous Kentucky Lake Levels

Home | Lake Conditions | Previous Kentucky Lake Levels

Kentucky Lake Stages Over Last 48 Hours

The following table shows the previous 48 hours for Kentucky Lake.

Date/Time Lake River Discharge (cfs)
7/17/2019 9 PM CDT 359.21' 311.82' 75,100
7/17/2019 8 PM CDT 359.29' 311.74' 74,928
7/17/2019 7 PM CDT 359.30' 311.74' 74,849
7/17/2019 6 PM CDT 359.30' 311.73' 74,886
7/17/2019 5 PM CDT 359.32' 311.82' 74,942
7/17/2019 4 PM CDT 359.31' 311.87' 75,198
7/17/2019 3 PM CDT 359.28' 311.92' 75,281
7/17/2019 2 PM CDT 359.29' 311.98' 72,888
7/17/2019 1 PM CDT 359.28' 311.88' 65,391
7/17/2019 12 PM CDT 359.30' 311.74' 65,541
7/17/2019 11 AM CDT 359.30' 311.86' 65,656
7/17/2019 10 AM CDT 359.29' 311.82' 66,057
7/17/2019 9 AM CDT 359.30' 311.95' 66,214
7/17/2019 8 AM CDT 359.33' 312.05' 66,201
7/17/2019 7 AM CDT 359.34' 311.94' 66,017
7/17/2019 6 AM CDT 359.36' 311.89' 65,848
7/17/2019 5 AM CDT 359.38' 311.91' 65,839
7/17/2019 4 AM CDT 359.39' 311.95' 65,869
7/17/2019 3 AM CDT 359.39' 311.91' 65,865
7/17/2019 2 AM CDT 359.39' 311.86' 65,751
7/17/2019 1 AM CDT 359.40' 311.83' 65,764
7/17/2019 12 AM CDT 359.43' 311.69' 65,795
7/16/2019 11 PM CDT 359.43' 311.75' 65,807
7/16/2019 10 PM CDT 359.42' 311.66' 65,776
7/16/2019 9 PM CDT 359.44' 311.58' 65,684
7/16/2019 8 PM CDT 359.45' 311.54' 65,404
7/16/2019 7 PM CDT 359.42' 311.39' 65,542
7/16/2019 6 PM CDT 359.45' 311.58' 65,655
7/16/2019 5 PM CDT 359.51' 311.50' 65,164
7/16/2019 4 PM CDT 359.48' 311.29' 45,900
7/16/2019 3 PM CDT 359.61' 310.84' 38,337
7/16/2019 2 PM CDT 359.61' 310.66' 21,044
7/16/2019 1 PM CDT 359.62' 310.39' 21,035
7/16/2019 12 PM CDT 359.56' 310.32' 21,036
7/16/2019 11 AM CDT 359.54' 310.37' 20,949
7/16/2019 10 AM CDT 359.53' 310.69' 21,148
7/16/2019 9 AM CDT 359.49' 310.55' 21,046
7/16/2019 8 AM CDT 359.37' 310.27' 21,122
7/16/2019 7 AM CDT 359.44' 310.48' 40,819
7/16/2019 6 AM CDT 359.40' 311.18' 46,166
7/16/2019 5 AM CDT 359.40' 311.05' 46,263
7/16/2019 4 AM CDT 359.41' 311.11' 46,306
7/16/2019 3 AM CDT 359.47' 311.07' 46,108
7/16/2019 2 AM CDT 359.45' 311.09' 46,006
7/16/2019 1 AM CDT 359.40' 311.00' 46,299
7/16/2019 12 AM CDT 359.34' 311.00' 46,330
7/15/2019 11 PM CDT 359.34' 311.09' 46,322
7/15/2019 10 PM CDT 359.25' 310.94' 46,181
7/15/2019 9 PM CDT 359.30' 310.78' 46,038
7/15/2019 8 PM CDT 359.36' 310.81' 46,328
7/15/2019 7 PM CDT 359.39' 311.16' 46,051
7/15/2019 6 PM CDT 359.37' 310.87' 28,514
7/15/2019 5 PM CDT 359.45' 310.41' 21,176
7/15/2019 4 PM CDT 359.40' 310.38' 21,178
7/15/2019 3 PM CDT 359.25' 310.51' 21,215
7/15/2019 2 PM CDT 359.23' 310.59' 21,306
7/15/2019 1 PM CDT 359.18' 310.59' 21,349
7/15/2019 12 PM CDT 359.20' 310.76' 21,471
7/15/2019 11 AM CDT 359.14' 310.84' 21,441
7/15/2019 10 AM CDT 359.13' 310.88' 21,577
7/15/2019 9 AM CDT 359.13' 310.90' 21,521
7/15/2019 8 AM CDT 359.09' 310.91' 38,357
7/15/2019 7 AM CDT 359.01' 311.58' 47,204
7/15/2019 6 AM CDT 358.91' 311.86' 59,467
7/15/2019 5 AM CDT 358.94' 311.95' 59,368
7/15/2019 4 AM CDT 358.93' 311.93' 59,293
7/15/2019 3 AM CDT 358.91' 312.04' 59,407
7/15/2019 2 AM CDT 358.95' 312.04' 59,405
7/15/2019 1 AM CDT 358.96' 312.10' 59,531

Good Morning
Photo by Nancy Smith

Campers at Land Between The Lakes are often greeted by morning fog rising off of the water and a gorgeous view.